Sims, Arkansas
Current Conditions -  °F | °C
As of 1:53 PM on Saturday 25 Oct 2014 (Local Time) from KMWT Reporting Station
Clear Clear  
Wind Chill: 83°   Ceiling: Unl
Heat Index: 84°   Visibility: 10mi
Dew Point: 63°   Wind: 6mph
Humidity: 51%   Direction: NA
Pressure: 30.06"   Gusts: NA
Location:  34.66°N, 93.69°W
Report Text: KMWT 251853Z AUTO VRB05KT 10SM CLR 28/17 A3006 RMK AO2 SLP173 T02830172
Loading
Personal Weather Stations






























Interactive Weather Map
Tropical Storm Tracking
New forecast layout! Learn more

10-Day Weather Forecast

Advertisements
Track Severe Weather on mobile